Hutchinson County Airport - Borger, Texas, United States - FAA: BGD - ICAO: KBGD - IATA: BGD

 
  Longest Runway: 6,300 feet   Approach Types:    Customs Landing Rights Airport: No   Port of Entry: No

Local Forecast

Tonight (7/4): A 20 percent chance of showers and thunderstorms. Partly cloudy, with a low around 70. South wind around 15 mph, with gusts as high as 20 mph.

Sunday (7/5): Sunny and hot, with a high near 98. South southwest wind around 15 mph, with gusts as high as 25 mph.

Sunday Night (7/5): A 20 percent chance of showers and thunderstorms. Partly cloudy, with a low around 72. South wind around 20 mph, with gusts as high as 25 mph.

Monday (7/6): A 50 percent chance of showers and thunderstorms. Partly sunny, with a high near 93. South wind 15 to 20 mph becoming north in the afternoon.

Monday Night (7/6): A 50 percent chance of showers and thunderstorms. Mostly cloudy, with a low around 63. Breezy, with a north wind 20 to 25 mph decreasing to 10 to 15 mph after midnight. Winds could gust as high as 30 mph.

Tuesday (7/7): A 30 percent chance of showers and thunderstorms. Mostly cloudy, with a high near 77. North northeast wind 10 to 15 mph.

Tuesday Night (7/7): A 20 percent chance of showers and thunderstorms. Mostly cloudy, with a low around 63. East northeast wind 5 to 10 mph.



Current Weather (METAR)

2015/07/04 21:51 KBGD 042151Z AUTO 16009KT 10SM CLR 32/16 A2996 RMK AO2 SLP100 T03220156

BORGER HUTCHINSON CO AIRPORT , TX, United States (KBGD) 35-42N 101-24W 927M Jul 04, 2015 - 05:51 PM EDT / 2015.07.04 2151 UTC Wind: from the SSE (160 degrees) at 10 MPH (9 KT):0 Visibility: 10 mile(s):0 Sky conditions: clear Temperature: 90.0 F (32.2 C) Dew Point: 60.1 F (15.6 C) Relative Humidity: 36% Pressure (altimeter): 29.96 in. Hg (1014 hPa) ob: KBGD 042151Z AUTO 16009KT 10SM CLR 32/16 A2996 RMK AO2 SLP100 T03220156 cycle: 22

Terminal Forecast (TAF)